sensor_id;sensor_type;location;lat;lon;timestamp;pressure;altitude;pressure_sealevel;temperature
79148;BMP280;68562;51.600;6.524;2023-10-19T00:00:00;993.0;;;16.4
79148;BMP280;68562;51.600;6.524;2023-10-19T00:05:00;993.0;;;16.5
79148;BMP280;68562;51.600;6.524;2023-10-19T00:10:00;993.0;;;16.5
79148;BMP280;68562;51.600;6.524;2023-10-19T00:15:00;993.0;;;16.6
79148;BMP280;68562;51.600;6.524;2023-10-19T00:20:00;992.9;;;16.7
79148;BMP280;68562;51.600;6.524;2023-10-19T00:25:01;992.8;;;16.7
79148;BMP280;68562;51.600;6.524;2023-10-19T00:30:00;992.8;;;16.8
79148;BMP280;68562;51.600;6.524;2023-10-19T00:35:00;992.7;;;16.9
79148;BMP280;68562;51.600;6.524;2023-10-19T00:40:00;992.7;;;16.8
79148;BMP280;68562;51.600;6.524;2023-10-19T00:45:00;992.6;;;17.0
79148;BMP280;68562;51.600;6.524;2023-10-19T00:50:00;992.7;;;17.0
79148;BMP280;68562;51.600;6.524;2023-10-19T00:55:00;992.6;;;17.0
79148;BMP280;68562;51.600;6.524;2023-10-19T01:00:01;992.6;;;17.0
79148;BMP280;68562;51.600;6.524;2023-10-19T01:05:00;992.5;;;17.2
79148;BMP280;68562;51.600;6.524;2023-10-19T01:10:02;992.4;;;17.1
79148;BMP280;68562;51.600;6.524;2023-10-19T01:15:02;992.5;;;17.2
79148;BMP280;68562;51.600;6.524;2023-10-19T01:20:00;992.6;;;17.1
79148;BMP280;68562;51.600;6.524;2023-10-19T01:25:03;992.5;;;17.2
79148;BMP280;68562;51.600;6.524;2023-10-19T01:30:00;992.5;;;17.2
79148;BMP280;68562;51.600;6.524;2023-10-19T01:35:00;992.9;;;17.1
79148;BMP280;68562;51.600;6.524;2023-10-19T01:40:00;992.5;;;17.1
79148;BMP280;68562;51.600;6.524;2023-10-19T01:45:00;992.7;;;17.1
79148;BMP280;68562;51.600;6.524;2023-10-19T01:50:00;992.4;;;17.1
79148;BMP280;68562;51.600;6.524;2023-10-19T01:55:00;992.5;;;17.2
79148;BMP280;68562;51.600;6.524;2023-10-19T02:00:00;992.4;;;17.3
79148;BMP280;68562;51.600;6.524;2023-10-19T02:05:00;992.3;;;17.3
79148;BMP280;68562;51.600;6.524;2023-10-19T02:10:00;992.1;;;17.3
79148;BMP280;68562;51.600;6.524;2023-10-19T02:15:00;992.1;;;17.4
79148;BMP280;68562;51.600;6.524;2023-10-19T02:20:00;992.1;;;17.4
79148;BMP280;68562;51.600;6.524;2023-10-19T02:25:00;992.1;;;17.4
79148;BMP280;68562;51.600;6.524;2023-10-19T02:30:00;992.1;;;17.4
79148;BMP280;68562;51.600;6.524;2023-10-19T02:35:00;992.1;;;17.5
79148;BMP280;68562;51.600;6.524;2023-10-19T02:40:00;992.0;;;17.5
79148;BMP280;68562;51.600;6.524;2023-10-19T02:45:00;992.0;;;17.6
79148;BMP280;68562;51.600;6.524;2023-10-19T02:50:00;992.0;;;17.6
79148;BMP280;68562;51.600;6.524;2023-10-19T02:55:00;992.0;;;17.6
79148;BMP280;68562;51.600;6.524;2023-10-19T03:00:00;992.0;;;17.8
79148;BMP280;68562;51.600;6.524;2023-10-19T03:05:00;992.0;;;17.7
79148;BMP280;68562;51.600;6.524;2023-10-19T03:10:00;991.9;;;17.8
79148;BMP280;68562;51.600;6.524;2023-10-19T03:15:00;991.8;;;17.8
79148;BMP280;68562;51.600;6.524;2023-10-19T03:20:00;991.8;;;17.9
79148;BMP280;68562;51.600;6.524;2023-10-19T03:25:00;991.8;;;17.9
79148;BMP280;68562;51.600;6.524;2023-10-19T03:30:00;991.8;;;18.0
79148;BMP280;68562;51.600;6.524;2023-10-19T03:35:00;991.7;;;18.0
79148;BMP280;68562;51.600;6.524;2023-10-19T03:40:00;991.8;;;18.1
79148;BMP280;68562;51.600;6.524;2023-10-19T03:45:00;991.8;;;18.1
79148;BMP280;68562;51.600;6.524;2023-10-19T03:50:00;991.8;;;18.2
79148;BMP280;68562;51.600;6.524;2023-10-19T03:55:00;991.7;;;18.2
79148;BMP280;68562;51.600;6.524;2023-10-19T04:00:00;991.6;;;18.4
79148;BMP280;68562;51.600;6.524;2023-10-19T04:05:00;991.5;;;18.4
79148;BMP280;68562;51.600;6.524;2023-10-19T04:10:00;991.5;;;18.5
79148;BMP280;68562;51.600;6.524;2023-10-19T04:15:01;991.5;;;18.4
79148;BMP280;68562;51.600;6.524;2023-10-19T04:20:00;991.4;;;18.5
79148;BMP280;68562;51.600;6.524;2023-10-19T04:25:00;991.5;;;18.5
79148;BMP280;68562;51.600;6.524;2023-10-19T04:30:00;991.4;;;18.5
79148;BMP280;68562;51.600;6.524;2023-10-19T04:35:00;991.4;;;18.4
79148;BMP280;68562;51.600;6.524;2023-10-19T04:40:00;991.4;;;18.5
79148;BMP280;68562;51.600;6.524;2023-10-19T04:45:00;991.4;;;18.5
79148;BMP280;68562;51.600;6.524;2023-10-19T04:50:00;991.5;;;18.4
79148;BMP280;68562;51.600;6.524;2023-10-19T04:55:00;991.5;;;18.5
79148;BMP280;68562;51.600;6.524;2023-10-19T05:00:00;991.6;;;18.5
79148;BMP280;68562;51.600;6.524;2023-10-19T05:05:00;991.5;;;18.5
79148;BMP280;68562;51.600;6.524;2023-10-19T05:10:00;991.5;;;18.5
79148;BMP280;68562;51.600;6.524;2023-10-19T05:15:00;991.6;;;18.5
79148;BMP280;68562;51.600;6.524;2023-10-19T05:20:00;991.6;;;18.6
79148;BMP280;68562;51.600;6.524;2023-10-19T05:25:00;991.6;;;18.5
79148;BMP280;68562;51.600;6.524;2023-10-19T05:30:00;991.6;;;18.4
79148;BMP280;68562;51.600;6.524;2023-10-19T05:35:00;991.7;;;18.4
79148;BMP280;68562;51.600;6.524;2023-10-19T05:40:00;991.7;;;18.4
79148;BMP280;68562;51.600;6.524;2023-10-19T05:45:00;991.7;;;18.5
79148;BMP280;68562;51.600;6.524;2023-10-19T05:50:00;991.7;;;18.5
79148;BMP280;68562;51.600;6.524;2023-10-19T05:55:00;991.8;;;18.5
79148;BMP280;68562;51.600;6.524;2023-10-19T06:00:00;991.7;;;18.6
79148;BMP280;68562;51.600;6.524;2023-10-19T06:05:00;991.8;;;18.6
79148;BMP280;68562;51.600;6.524;2023-10-19T06:10:00;991.8;;;18.6
79148;BMP280;68562;51.600;6.524;2023-10-19T06:15:00;991.9;;;18.7
79148;BMP280;68562;51.600;6.524;2023-10-19T06:20:00;991.9;;;18.6
79148;BMP280;68562;51.600;6.524;2023-10-19T06:25:00;991.9;;;18.6
79148;BMP280;68562;51.600;6.524;2023-10-19T06:30:00;992.0;;;18.6
79148;BMP280;68562;51.600;6.524;2023-10-19T06:35:00;992.0;;;18.6
79148;BMP280;68562;51.600;6.524;2023-10-19T06:40:00;992.0;;;18.5
79148;BMP280;68562;51.600;6.524;2023-10-19T06:45:00;992.1;;;18.6
79148;BMP280;68562;51.600;6.524;2023-10-19T06:50:00;992.1;;;18.6
79148;BMP280;68562;51.600;6.524;2023-10-19T06:55:00;992.1;;;18.5
79148;BMP280;68562;51.600;6.524;2023-10-19T07:00:00;992.1;;;18.6
79148;BMP280;68562;51.600;6.524;2023-10-19T07:05:00;992.2;;;18.5
79148;BMP280;68562;51.600;6.524;2023-10-19T07:10:00;992.2;;;18.6
79148;BMP280;68562;51.600;6.524;2023-10-19T07:15:00;992.2;;;18.5
79148;BMP280;68562;51.600;6.524;2023-10-19T07:20:01;992.2;;;18.6
79148;BMP280;68562;51.600;6.524;2023-10-19T07:25:00;992.3;;;18.6
79148;BMP280;68562;51.600;6.524;2023-10-19T07:30:00;992.4;;;18.7
79148;BMP280;68562;51.600;6.524;2023-10-19T07:35:00;992.4;;;18.8
79148;BMP280;68562;51.600;6.524;2023-10-19T07:40:00;992.4;;;18.9
79148;BMP280;68562;51.600;6.524;2023-10-19T07:45:00;992.4;;;19.0
79148;BMP280;68562;51.600;6.524;2023-10-19T07:50:00;992.3;;;19.1
79148;BMP280;68562;51.600;6.524;2023-10-19T07:55:00;992.4;;;19.2
79148;BMP280;68562;51.600;6.524;2023-10-19T08:00:00;992.3;;;19.3
79148;BMP280;68562;51.600;6.524;2023-10-19T08:05:00;992.4;;;19.5
79148;BMP280;68562;51.600;6.524;2023-10-19T08:10:00;992.4;;;19.5
79148;BMP280;68562;51.600;6.524;2023-10-19T08:15:00;992.4;;;19.7
79148;BMP280;68562;51.600;6.524;2023-10-19T08:20:00;992.2;;;19.7
79148;BMP280;68562;51.600;6.524;2023-10-19T08:25:00;992.2;;;19.9
79148;BMP280;68562;51.600;6.524;2023-10-19T08:30:00;992.2;;;19.9
79148;BMP280;68562;51.600;6.524;2023-10-19T08:35:00;992.2;;;20.1
79148;BMP280;68562;51.600;6.524;2023-10-19T08:40:00;992.2;;;20.1
79148;BMP280;68562;51.600;6.524;2023-10-19T08:45:00;992.2;;;20.2
79148;BMP280;68562;51.600;6.524;2023-10-19T08:50:00;992.1;;;20.3
79148;BMP280;68562;51.600;6.524;2023-10-19T08:55:00;992.1;;;20.4
79148;BMP280;68562;51.600;6.524;2023-10-19T09:00:00;992.0;;;20.4
79148;BMP280;68562;51.600;6.524;2023-10-19T09:05:05;991.9;;;20.5
79148;BMP280;68562;51.600;6.524;2023-10-19T09:10:00;991.9;;;20.4
79148;BMP280;68562;51.600;6.524;2023-10-19T09:15:00;991.9;;;20.5
79148;BMP280;68562;51.600;6.524;2023-10-19T09:20:00;991.9;;;20.4
79148;BMP280;68562;51.600;6.524;2023-10-19T09:25:00;992.0;;;20.6
79148;BMP280;68562;51.600;6.524;2023-10-19T09:30:02;992.1;;;20.7
79148;BMP280;68562;51.600;6.524;2023-10-19T09:35:00;992.0;;;20.9
79148;BMP280;68562;51.600;6.524;2023-10-19T09:40:00;991.9;;;20.9
79148;BMP280;68562;51.600;6.524;2023-10-19T09:45:03;991.9;;;21.0
79148;BMP280;68562;51.600;6.524;2023-10-19T09:50:00;991.8;;;21.1
79148;BMP280;68562;51.600;6.524;2023-10-19T09:55:03;991.8;;;21.3
79148;BMP280;68562;51.600;6.524;2023-10-19T10:00:03;991.8;;;21.7
79148;BMP280;68562;51.600;6.524;2023-10-19T10:05:00;991.8;;;22.8
79148;BMP280;68562;51.600;6.524;2023-10-19T10:10:00;991.9;;;24.0
79148;BMP280;68562;51.600;6.524;2023-10-19T10:15:02;991.7;;;24.8
79148;BMP280;68562;51.600;6.524;2023-10-19T10:25:00;991.7;;;26.1
79148;BMP280;68562;51.600;6.524;2023-10-19T10:30:04;991.7;;;26.1
79148;BMP280;68562;51.600;6.524;2023-10-19T10:35:00;991.5;;;26.3
79148;BMP280;68562;51.600;6.524;2023-10-19T10:40:00;991.4;;;26.4
79148;BMP280;68562;51.600;6.524;2023-10-19T10:45:00;991.5;;;26.9
79148;BMP280;68562;51.600;6.524;2023-10-19T10:50:00;991.5;;;27.2
79148;BMP280;68562;51.600;6.524;2023-10-19T10:55:06;991.4;;;27.1
79148;BMP280;68562;51.600;6.524;2023-10-19T11:00:03;991.4;;;27.1
79148;BMP280;68562;51.600;6.524;2023-10-19T11:05:00;991.3;;;27.2
79148;BMP280;68562;51.600;6.524;2023-10-19T11:10:00;991.3;;;27.5
79148;BMP280;68562;51.600;6.524;2023-10-19T11:15:00;991.3;;;27.6
79148;BMP280;68562;51.600;6.524;2023-10-19T11:20:01;991.1;;;28.0
79148;BMP280;68562;51.600;6.524;2023-10-19T11:25:18;991.0;;;28.7
79148;BMP280;68562;51.600;6.524;2023-10-19T11:30:00;991.1;;;29.5
79148;BMP280;68562;51.600;6.524;2023-10-19T11:35:00;991.1;;;30.1
79148;BMP280;68562;51.600;6.524;2023-10-19T11:40:00;991.0;;;30.5
79148;BMP280;68562;51.600;6.524;2023-10-19T11:45:00;990.9;;;31.0
79148;BMP280;68562;51.600;6.524;2023-10-19T11:50:00;990.9;;;30.9
79148;BMP280;68562;51.600;6.524;2023-10-19T11:55:00;990.8;;;30.3
79148;BMP280;68562;51.600;6.524;2023-10-19T12:00:00;990.8;;;29.6
79148;BMP280;68562;51.600;6.524;2023-10-19T12:05:01;990.8;;;29.8
79148;BMP280;68562;51.600;6.524;2023-10-19T12:10:00;990.9;;;29.8
79148;BMP280;68562;51.600;6.524;2023-10-19T12:15:00;990.8;;;29.3
79148;BMP280;68562;51.600;6.524;2023-10-19T12:20:00;990.8;;;28.6
79148;BMP280;68562;51.600;6.524;2023-10-19T12:25:00;990.8;;;28.0
79148;BMP280;68562;51.600;6.524;2023-10-19T12:30:00;990.8;;;27.5
79148;BMP280;68562;51.600;6.524;2023-10-19T12:35:00;990.8;;;27.0
79148;BMP280;68562;51.600;6.524;2023-10-19T12:40:00;990.8;;;26.8
79148;BMP280;68562;51.600;6.524;2023-10-19T12:45:00;990.8;;;26.4
79148;BMP280;68562;51.600;6.524;2023-10-19T12:50:00;990.7;;;26.0
79148;BMP280;68562;51.600;6.524;2023-10-19T12:55:00;990.7;;;25.7
79148;BMP280;68562;51.600;6.524;2023-10-19T13:00:00;990.8;;;25.4
79148;BMP280;68562;51.600;6.524;2023-10-19T13:05:00;990.7;;;25.2
79148;BMP280;68562;51.600;6.524;2023-10-19T13:10:00;990.6;;;25.0
79148;BMP280;68562;51.600;6.524;2023-10-19T13:15:00;990.6;;;24.8
79148;BMP280;68562;51.600;6.524;2023-10-19T13:20:00;990.5;;;24.8
79148;BMP280;68562;51.600;6.524;2023-10-19T13:25:00;990.5;;;24.6
79148;BMP280;68562;51.600;6.524;2023-10-19T13:30:00;990.5;;;24.6
79148;BMP280;68562;51.600;6.524;2023-10-19T13:35:00;990.5;;;24.4
79148;BMP280;68562;51.600;6.524;2023-10-19T13:40:00;990.5;;;24.2
79148;BMP280;68562;51.600;6.524;2023-10-19T13:45:00;990.4;;;24.1
79148;BMP280;68562;51.600;6.524;2023-10-19T13:50:00;990.4;;;24.0
79148;BMP280;68562;51.600;6.524;2023-10-19T13:55:01;990.4;;;23.9
79148;BMP280;68562;51.600;6.524;2023-10-19T14:00:00;990.3;;;23.9
79148;BMP280;68562;51.600;6.524;2023-10-19T14:05:00;990.3;;;23.8
79148;BMP280;68562;51.600;6.524;2023-10-19T14:10:00;990.3;;;23.8
79148;BMP280;68562;51.600;6.524;2023-10-19T14:15:00;990.2;;;23.7
79148;BMP280;68562;51.600;6.524;2023-10-19T14:20:00;990.0;;;23.7
79148;BMP280;68562;51.600;6.524;2023-10-19T14:25:00;990.0;;;23.5
79148;BMP280;68562;51.600;6.524;2023-10-19T14:35:00;989.9;;;23.4
79148;BMP280;68562;51.600;6.524;2023-10-19T14:40:00;989.8;;;23.3
79148;BMP280;68562;51.600;6.524;2023-10-19T14:45:00;989.7;;;23.3
79148;BMP280;68562;51.600;6.524;2023-10-19T14:50:00;989.6;;;23.2
79148;BMP280;68562;51.600;6.524;2023-10-19T14:55:00;989.5;;;23.1
79148;BMP280;68562;51.600;6.524;2023-10-19T15:00:00;989.3;;;23.0
79148;BMP280;68562;51.600;6.524;2023-10-19T15:05:00;989.3;;;22.9
79148;BMP280;68562;51.600;6.524;2023-10-19T15:10:01;989.3;;;22.9
79148;BMP280;68562;51.600;6.524;2023-10-19T15:15:00;989.4;;;22.9
79148;BMP280;68562;51.600;6.524;2023-10-19T15:20:00;989.3;;;22.8
79148;BMP280;68562;51.600;6.524;2023-10-19T15:25:00;989.2;;;22.9
79148;BMP280;68562;51.600;6.524;2023-10-19T15:30:00;989.2;;;22.7
79148;BMP280;68562;51.600;6.524;2023-10-19T15:35:00;989.0;;;22.7
79148;BMP280;68562;51.600;6.524;2023-10-19T15:40:00;989.2;;;22.6
79148;BMP280;68562;51.600;6.524;2023-10-19T15:45:00;989.0;;;22.8
79148;BMP280;68562;51.600;6.524;2023-10-19T15:50:00;988.9;;;22.8
79148;BMP280;68562;51.600;6.524;2023-10-19T15:55:00;988.8;;;22.8
79148;BMP280;68562;51.600;6.524;2023-10-19T16:00:00;988.9;;;22.7
79148;BMP280;68562;51.600;6.524;2023-10-19T16:05:00;988.8;;;22.7
79148;BMP280;68562;51.600;6.524;2023-10-19T16:10:00;988.8;;;22.5
79148;BMP280;68562;51.600;6.524;2023-10-19T16:15:00;988.8;;;22.6
79148;BMP280;68562;51.600;6.524;2023-10-19T16:20:00;988.8;;;22.4
79148;BMP280;68562;51.600;6.524;2023-10-19T16:25:00;988.6;;;22.4
79148;BMP280;68562;51.600;6.524;2023-10-19T16:30:00;988.6;;;22.3
79148;BMP280;68562;51.600;6.524;2023-10-19T16:35:00;988.5;;;22.3
79148;BMP280;68562;51.600;6.524;2023-10-19T16:40:00;988.7;;;22.1
79148;BMP280;68562;51.600;6.524;2023-10-19T16:45:00;988.7;;;22.1
79148;BMP280;68562;51.600;6.524;2023-10-19T16:50:00;988.8;;;22.0
79148;BMP280;68562;51.600;6.524;2023-10-19T16:55:00;988.8;;;21.9
79148;BMP280;68562;51.600;6.524;2023-10-19T17:00:00;988.9;;;21.9
79148;BMP280;68562;51.600;6.524;2023-10-19T17:05:00;988.8;;;21.9
79148;BMP280;68562;51.600;6.524;2023-10-19T17:10:00;988.9;;;21.8
79148;BMP280;68562;51.600;6.524;2023-10-19T17:15:01;988.9;;;21.7
79148;BMP280;68562;51.600;6.524;2023-10-19T17:20:00;988.8;;;21.7
79148;BMP280;68562;51.600;6.524;2023-10-19T17:25:00;988.7;;;21.7
79148;BMP280;68562;51.600;6.524;2023-10-19T17:30:00;988.7;;;21.6
79148;BMP280;68562;51.600;6.524;2023-10-19T17:35:00;988.6;;;21.6
79148;BMP280;68562;51.600;6.524;2023-10-19T17:40:01;988.6;;;21.5
79148;BMP280;68562;51.600;6.524;2023-10-19T17:45:00;988.6;;;21.5
79148;BMP280;68562;51.600;6.524;2023-10-19T17:50:00;988.5;;;21.4
79148;BMP280;68562;51.600;6.524;2023-10-19T17:55:00;988.4;;;21.3
79148;BMP280;68562;51.600;6.524;2023-10-19T18:00:00;988.4;;;21.3
79148;BMP280;68562;51.600;6.524;2023-10-19T18:05:00;988.3;;;21.2
79148;BMP280;68562;51.600;6.524;2023-10-19T18:10:00;988.2;;;21.2
79148;BMP280;68562;51.600;6.524;2023-10-19T18:15:08;988.3;;;21.1
79148;BMP280;68562;51.600;6.524;2023-10-19T18:20:00;988.3;;;21.0
79148;BMP280;68562;51.600;6.524;2023-10-19T18:25:00;988.5;;;20.9
79148;BMP280;68562;51.600;6.524;2023-10-19T18:30:00;988.4;;;20.8
79148;BMP280;68562;51.600;6.524;2023-10-19T18:35:00;988.3;;;20.7
79148;BMP280;68562;51.600;6.524;2023-10-19T18:40:00;988.2;;;20.7
79148;BMP280;68562;51.600;6.524;2023-10-19T18:45:01;988.0;;;20.6
79148;BMP280;68562;51.600;6.524;2023-10-19T18:50:00;988.1;;;20.6
79148;BMP280;68562;51.600;6.524;2023-10-19T18:55:00;988.1;;;20.5
79148;BMP280;68562;51.600;6.524;2023-10-19T19:00:00;988.1;;;20.6
79148;BMP280;68562;51.600;6.524;2023-10-19T19:05:00;988.1;;;20.5
79148;BMP280;68562;51.600;6.524;2023-10-19T19:10:00;987.9;;;20.6
79148;BMP280;68562;51.600;6.524;2023-10-19T19:15:00;987.9;;;20.5
79148;BMP280;68562;51.600;6.524;2023-10-19T19:20:00;987.8;;;20.5
79148;BMP280;68562;51.600;6.524;2023-10-19T19:25:00;987.7;;;20.5
79148;BMP280;68562;51.600;6.524;2023-10-19T19:30:00;987.5;;;20.5
79148;BMP280;68562;51.600;6.524;2023-10-19T19:35:00;987.7;;;20.4
79148;BMP280;68562;51.600;6.524;2023-10-19T19:40:00;987.7;;;20.4
79148;BMP280;68562;51.600;6.524;2023-10-19T19:45:00;987.7;;;20.3
79148;BMP280;68562;51.600;6.524;2023-10-19T19:50:00;987.8;;;20.4
79148;BMP280;68562;51.600;6.524;2023-10-19T19:55:00;987.8;;;20.2
79148;BMP280;68562;51.600;6.524;2023-10-19T20:00:00;987.9;;;20.2
79148;BMP280;68562;51.600;6.524;2023-10-19T20:05:00;987.7;;;20.1
79148;BMP280;68562;51.600;6.524;2023-10-19T20:10:00;987.8;;;20.1
79148;BMP280;68562;51.600;6.524;2023-10-19T20:15:00;987.7;;;20.0
79148;BMP280;68562;51.600;6.524;2023-10-19T20:20:00;987.7;;;20.0
79148;BMP280;68562;51.600;6.524;2023-10-19T20:25:00;987.6;;;20.0
79148;BMP280;68562;51.600;6.524;2023-10-19T20:30:00;987.6;;;20.0
79148;BMP280;68562;51.600;6.524;2023-10-19T20:35:00;987.5;;;20.0
79148;BMP280;68562;51.600;6.524;2023-10-19T20:40:00;987.4;;;20.0
79148;BMP280;68562;51.600;6.524;2023-10-19T20:45:00;987.4;;;19.9
79148;BMP280;68562;51.600;6.524;2023-10-19T20:50:00;987.4;;;19.9
79148;BMP280;68562;51.600;6.524;2023-10-19T20:55:00;987.2;;;19.9
79148;BMP280;68562;51.600;6.524;2023-10-19T21:00:00;987.1;;;20.0
79148;BMP280;68562;51.600;6.524;2023-10-19T21:05:00;986.9;;;20.0
79148;BMP280;68562;51.600;6.524;2023-10-19T21:10:00;986.9;;;20.0
79148;BMP280;68562;51.600;6.524;2023-10-19T21:15:00;986.8;;;20.1
79148;BMP280;68562;51.600;6.524;2023-10-19T21:20:00;986.7;;;20.1
79148;BMP280;68562;51.600;6.524;2023-10-19T21:25:00;986.5;;;20.1
79148;BMP280;68562;51.600;6.524;2023-10-19T21:30:00;986.6;;;20.1
79148;BMP280;68562;51.600;6.524;2023-10-19T21:35:00;986.5;;;20.0
79148;BMP280;68562;51.600;6.524;2023-10-19T21:40:00;986.4;;;20.0
79148;BMP280;68562;51.600;6.524;2023-10-19T21:45:00;986.4;;;20.0
79148;BMP280;68562;51.600;6.524;2023-10-19T21:50:00;986.3;;;19.9
79148;BMP280;68562;51.600;6.524;2023-10-19T21:55:00;986.4;;;19.9
79148;BMP280;68562;51.600;6.524;2023-10-19T22:00:00;986.3;;;19.9
79148;BMP280;68562;51.600;6.524;2023-10-19T22:05:00;986.3;;;19.9
79148;BMP280;68562;51.600;6.524;2023-10-19T22:10:00;986.2;;;19.8
79148;BMP280;68562;51.600;6.524;2023-10-19T22:15:00;986.1;;;19.8
79148;BMP280;68562;51.600;6.524;2023-10-19T22:20:00;986.2;;;19.7
79148;BMP280;68562;51.600;6.524;2023-10-19T22:25:00;986.2;;;19.8
79148;BMP280;68562;51.600;6.524;2023-10-19T22:30:00;986.0;;;19.7
79148;BMP280;68562;51.600;6.524;2023-10-19T22:35:00;985.9;;;19.8
79148;BMP280;68562;51.600;6.524;2023-10-19T22:40:00;985.9;;;19.7
79148;BMP280;68562;51.600;6.524;2023-10-19T22:45:00;986.2;;;19.8
79148;BMP280;68562;51.600;6.524;2023-10-19T22:50:00;986.2;;;19.8
79148;BMP280;68562;51.600;6.524;2023-10-19T22:55:00;986.0;;;19.8
79148;BMP280;68562;51.600;6.524;2023-10-19T23:00:00;985.9;;;19.8
79148;BMP280;68562;51.600;6.524;2023-10-19T23:05:00;985.8;;;19.9
79148;BMP280;68562;51.600;6.524;2023-10-19T23:10:00;985.8;;;19.8
79148;BMP280;68562;51.600;6.524;2023-10-19T23:15:00;985.9;;;19.9
79148;BMP280;68562;51.600;6.524;2023-10-19T23:20:00;985.9;;;19.8
79148;BMP280;68562;51.600;6.524;2023-10-19T23:25:00;985.9;;;19.9
79148;BMP280;68562;51.600;6.524;2023-10-19T23:30:00;985.8;;;19.8
79148;BMP280;68562;51.600;6.524;2023-10-19T23:35:00;985.8;;;19.9
79148;BMP280;68562;51.600;6.524;2023-10-19T23:40:00;985.7;;;19.8
79148;BMP280;68562;51.600;6.524;2023-10-19T23:45:00;985.6;;;19.9
79148;BMP280;68562;51.600;6.524;2023-10-19T23:50:00;985.5;;;19.8
79148;BMP280;68562;51.600;6.524;2023-10-19T23:55:00;985.4;;;19.9
